sensor_id;sensor_type;location;lat;lon;timestamp;pressure;altitude;pressure_sealevel;temperature;humidity
19843;BME280;10082;51.038;6.992;2023-02-15T00:01:33;106366.22;;;-144.33;100.00
19843;BME280;10082;51.038;6.992;2023-02-15T00:04:00;106315.94;;;-144.33;100.00
19843;BME280;10082;51.038;6.992;2023-02-15T00:06:27;105733.06;;;-144.33;100.00
19843;BME280;10082;51.038;6.992;2023-02-15T00:08:55;105073.91;;;-144.33;100.00
19843;BME280;10082;51.038;6.992;2023-02-15T00:11:22;104589.66;;;-144.33;100.00
19843;BME280;10082;51.038;6.992;2023-02-15T00:14:06;103896.53;;;-144.33;100.00
19843;BME280;10082;51.038;6.992;2023-02-15T00:16:34;103241.69;;;-144.33;100.00
19843;BME280;10082;51.038;6.992;2023-02-15T00:19:01;102874.13;;;-144.33;100.00
19843;BME280;10082;51.038;6.992;2023-02-15T00:21:29;102424.28;;;-144.33;100.00
19843;BME280;10082;51.038;6.992;2023-02-15T00:23:58;101829.91;;;-144.33;100.00
19843;BME280;10082;51.038;6.992;2023-02-15T00:26:26;101207.50;;;-144.33;100.00
19843;BME280;10082;51.038;6.992;2023-02-15T00:28:53;101229.59;;;-144.33;100.00
19843;BME280;10082;51.038;6.992;2023-02-15T00:31:22;100675.53;;;-144.33;100.00
19843;BME280;10082;51.038;6.992;2023-02-15T00:33:49;100408.56;;;-144.33;100.00
19843;BME280;10082;51.038;6.992;2023-02-15T00:36:17;99647.94;;;-144.33;100.00
19843;BME280;10082;51.038;6.992;2023-02-15T00:38:47;99158.28;;;-144.33;100.00
19843;BME280;10082;51.038;6.992;2023-02-15T00:41:16;98676.75;;;-144.33;100.00
19843;BME280;10082;51.038;6.992;2023-02-15T00:43:43;97950.53;;;-144.33;100.00
19843;BME280;10082;51.038;6.992;2023-02-15T00:46:11;97591.47;;;-144.33;100.00
19843;BME280;10082;51.038;6.992;2023-02-15T00:48:42;97264.56;;;-144.33;100.00
19843;BME280;10082;51.038;6.992;2023-02-15T00:51:10;96937.66;;;-144.33;100.00
19843;BME280;10082;51.038;6.992;2023-02-15T00:53:37;96350.09;;;-144.33;100.00
19843;BME280;10082;51.038;6.992;2023-02-15T00:56:04;96001.22;;;-144.33;100.00
19843;BME280;10082;51.038;6.992;2023-02-15T00:58:31;95570.16;;;-144.33;100.00
19843;BME280;10082;51.038;6.992;2023-02-15T01:01:03;95355.66;;;-144.33;100.00
19843;BME280;10082;51.038;6.992;2023-02-15T01:03:31;95261.44;;;-144.33;100.00
19843;BME280;10082;51.038;6.992;2023-02-15T01:06:00;95105.09;;;-144.33;100.00
19843;BME280;10082;51.038;6.992;2023-02-15T01:08:28;94954.75;;;-144.33;100.00
19843;BME280;10082;51.038;6.992;2023-02-15T01:10:55;94698.19;;;-144.33;100.00
19843;BME280;10082;51.038;6.992;2023-02-15T01:13:23;94802.41;;;-144.33;100.00
19843;BME280;10082;51.038;6.992;2023-02-15T01:15:53;94942.72;;;-144.33;100.00
19843;BME280;10082;51.038;6.992;2023-02-15T01:18:21;94864.56;;;-144.33;100.00
19843;BME280;10082;51.038;6.992;2023-02-15T01:20:49;95054.97;;;-144.33;100.00
19843;BME280;10082;51.038;6.992;2023-02-15T01:23:17;95367.69;;;-144.33;100.00
19843;BME280;10082;51.038;6.992;2023-02-15T01:25:45;95461.91;;;-144.33;100.00
19843;BME280;10082;51.038;6.992;2023-02-15T01:28:12;95676.41;;;-144.33;100.00
19843;BME280;10082;51.038;6.992;2023-02-15T01:30:40;96167.63;;;-144.33;100.00
19843;BME280;10082;51.038;6.992;2023-02-15T01:33:08;96586.72;;;-144.33;100.00
19843;BME280;10082;51.038;6.992;2023-02-15T01:35:43;97186.34;;;-144.33;100.00
19843;BME280;10082;51.038;6.992;2023-02-15T01:38:11;97336.75;;;-144.33;100.00
19843;BME280;10082;51.038;6.992;2023-02-15T01:40:39;97711.84;;;-144.33;100.00
19843;BME280;10082;51.038;6.992;2023-02-15T01:43:10;98187.25;;;-144.33;100.00
19843;BME280;10082;51.038;6.992;2023-02-15T01:45:37;98708.84;;;-144.33;100.00
19843;BME280;10082;51.038;6.992;2023-02-15T01:48:20;99294.75;;;-144.33;100.00
19843;BME280;10082;51.038;6.992;2023-02-15T01:50:50;99324.84;;;-144.33;100.00
19843;BME280;10082;51.038;6.992;2023-02-15T01:53:23;99591.72;;;-144.33;100.00
19843;BME280;10082;51.038;6.992;2023-02-15T01:55:57;99866.66;;;-144.33;100.00
19843;BME280;10082;51.038;6.992;2023-02-15T01:58:27;99983.06;;;-144.33;100.00
19843;BME280;10082;51.038;6.992;2023-02-15T02:00:58;100326.28;;;-144.33;100.00
19843;BME280;10082;51.038;6.992;2023-02-15T02:03:37;100940.50;;;-144.33;100.00
19843;BME280;10082;51.038;6.992;2023-02-15T02:06:05;101293.84;;;-144.33;100.00
19843;BME280;10082;51.038;6.992;2023-02-15T02:08:32;101440.38;;;-144.33;100.00
19843;BME280;10082;51.038;6.992;2023-02-15T02:11:01;101856.00;;;-144.33;100.00
19843;BME280;10082;51.038;6.992;2023-02-15T02:13:28;102303.78;;;-144.33;100.00
19843;BME280;10082;51.038;6.992;2023-02-15T02:16:00;102757.63;;;-144.33;100.00
19843;BME280;10082;51.038;6.992;2023-02-15T02:18:40;103506.81;;;-144.33;100.00
19843;BME280;10082;51.038;6.992;2023-02-15T02:21:47;104213.94;;;-144.33;100.00
19843;BME280;10082;51.038;6.992;2023-02-15T02:24:41;105063.84;;;-144.33;100.00
19843;BME280;10082;51.038;6.992;2023-02-15T02:27:34;105622.53;;;-144.33;100.00
19843;BME280;10082;51.038;6.992;2023-02-15T02:30:35;106344.09;;;-144.33;100.00
19843;BME280;10082;51.038;6.992;2023-02-15T02:33:29;107202.50;;;-144.33;100.00
19843;BME280;10082;51.038;6.992;2023-02-15T02:36:06;108010.81;;;-144.33;100.00
19843;BME280;10082;51.038;6.992;2023-02-15T02:38:42;108517.59;;;-144.33;100.00
19843;BME280;10082;51.038;6.992;2023-02-15T02:41:17;108851.47;;;-144.33;100.00
19843;BME280;10082;51.038;6.992;2023-02-15T02:43:50;109392.56;;;-144.33;100.00
19843;BME280;10082;51.038;6.992;2023-02-15T02:46:21;109955.84;;;-144.33;100.00
19843;BME280;10082;51.038;6.992;2023-02-15T02:48:52;109996.09;;;-144.33;100.00
19843;BME280;10082;51.038;6.992;2023-02-15T02:51:20;110138.94;;;-144.33;100.00
19843;BME280;10082;51.038;6.992;2023-02-15T02:53:50;110183.19;;;-144.33;100.00
19843;BME280;10082;51.038;6.992;2023-02-15T02:56:23;110418.63;;;-144.33;100.00
19843;BME280;10082;51.038;6.992;2023-02-15T02:58:56;110672.16;;;-144.33;100.00
19843;BME280;10082;51.038;6.992;2023-02-15T03:01:29;111066.56;;;-144.33;100.00
19843;BME280;10082;51.038;6.992;2023-02-15T03:04:03;111193.34;;;-144.33;100.00
19843;BME280;10082;51.038;6.992;2023-02-15T03:06:36;111446.94;;;-144.33;100.00
19843;BME280;10082;51.038;6.992;2023-02-15T03:09:09;111658.25;;;-144.33;100.00
19843;BME280;10082;51.038;6.992;2023-02-15T03:11:43;111855.53;;;-144.33;100.00
19843;BME280;10082;51.038;6.992;2023-02-15T03:14:13;112002.47;;;-144.33;100.00
19843;BME280;10082;51.038;6.992;2023-02-15T03:16:42;112115.19;;;-144.33;100.00
19843;BME280;10082;51.038;6.992;2023-02-15T03:19:17;112169.53;;;-144.33;100.00
19843;BME280;10082;51.038;6.992;2023-02-15T03:21:47;112169.53;;;-144.33;100.00
19843;BME280;10082;51.038;6.992;2023-02-15T03:24:25;112169.53;;;-144.33;100.00
19843;BME280;10082;51.038;6.992;2023-02-15T03:26:54;112171.53;;;-144.33;100.00
19843;BME280;10082;51.038;6.992;2023-02-15T03:29:25;112171.53;;;-144.33;100.00
19843;BME280;10082;51.038;6.992;2023-02-15T03:31:56;112171.53;;;-144.33;100.00
19843;BME280;10082;51.038;6.992;2023-02-15T03:34:29;112169.53;;;-144.33;100.00
19843;BME280;10082;51.038;6.992;2023-02-15T03:36:59;112169.53;;;-144.33;100.00
19843;BME280;10082;51.038;6.992;2023-02-15T03:42:16;112171.53;;;-144.33;100.00
19843;BME280;10082;51.038;6.992;2023-02-15T03:44:51;112171.53;;;-144.33;100.00
19843;BME280;10082;51.038;6.992;2023-02-15T03:47:25;112171.53;;;-144.33;100.00
19843;BME280;10082;51.038;6.992;2023-02-15T03:49:57;112171.53;;;-144.33;100.00
19843;BME280;10082;51.038;6.992;2023-02-15T03:52:29;112171.53;;;-144.33;100.00
19843;BME280;10082;51.038;6.992;2023-02-15T03:54:57;112171.53;;;-144.33;100.00
19843;BME280;10082;51.038;6.992;2023-02-15T03:57:26;112171.53;;;-144.33;100.00
19843;BME280;10082;51.038;6.992;2023-02-15T04:00:14;112171.53;;;-144.33;100.00
19843;BME280;10082;51.038;6.992;2023-02-15T04:03:16;112171.53;;;-144.33;100.00
19843;BME280;10082;51.038;6.992;2023-02-15T04:05:48;112171.53;;;-144.33;100.00
19843;BME280;10082;51.038;6.992;2023-02-15T04:08:15;112171.53;;;-144.33;100.00
19843;BME280;10082;51.038;6.992;2023-02-15T04:10:42;112171.53;;;-144.33;100.00
19843;BME280;10082;51.038;6.992;2023-02-15T04:13:17;112171.53;;;-144.33;100.00
19843;BME280;10082;51.038;6.992;2023-02-15T04:15:45;112171.53;;;-144.33;100.00
19843;BME280;10082;51.038;6.992;2023-02-15T04:18:29;112171.53;;;-144.33;100.00
19843;BME280;10082;51.038;6.992;2023-02-15T04:21:15;112171.53;;;-144.33;100.00
19843;BME280;10082;51.038;6.992;2023-02-15T04:23:59;112171.53;;;-144.33;100.00
19843;BME280;10082;51.038;6.992;2023-02-15T04:26:43;112171.53;;;-144.33;100.00
19843;BME280;10082;51.038;6.992;2023-02-15T04:29:11;112171.53;;;-144.33;100.00
19843;BME280;10082;51.038;6.992;2023-02-15T04:31:38;112171.53;;;-144.33;100.00
19843;BME280;10082;51.038;6.992;2023-02-15T04:34:05;112171.53;;;-144.33;100.00
19843;BME280;10082;51.038;6.992;2023-02-15T04:36:34;112171.53;;;-144.33;100.00
19843;BME280;10082;51.038;6.992;2023-02-15T04:39:01;112171.53;;;-144.33;100.00
19843;BME280;10082;51.038;6.992;2023-02-15T04:41:28;112171.53;;;-144.33;100.00
19843;BME280;10082;51.038;6.992;2023-02-15T04:43:55;112171.53;;;-144.33;100.00
19843;BME280;10082;51.038;6.992;2023-02-15T04:46:22;112171.53;;;-144.33;100.00
19843;BME280;10082;51.038;6.992;2023-02-15T04:48:49;112171.53;;;-144.33;100.00
19843;BME280;10082;51.038;6.992;2023-02-15T04:51:16;112171.53;;;-144.33;100.00
19843;BME280;10082;51.038;6.992;2023-02-15T04:53:45;112171.53;;;-144.33;100.00
19843;BME280;10082;51.038;6.992;2023-02-15T04:56:12;112171.53;;;-144.33;100.00
19843;BME280;10082;51.038;6.992;2023-02-15T04:58:40;112171.53;;;-144.33;100.00
19843;BME280;10082;51.038;6.992;2023-02-15T05:01:07;112171.53;;;-144.33;100.00
19843;BME280;10082;51.038;6.992;2023-02-15T05:03:35;112171.53;;;-144.33;100.00
19843;BME280;10082;51.038;6.992;2023-02-15T05:06:02;112171.53;;;-144.33;100.00
19843;BME280;10082;51.038;6.992;2023-02-15T05:08:30;112171.53;;;-144.33;100.00
19843;BME280;10082;51.038;6.992;2023-02-15T05:10:59;112171.53;;;-144.33;100.00
19843;BME280;10082;51.038;6.992;2023-02-15T05:13:26;112171.53;;;-144.33;100.00
19843;BME280;10082;51.038;6.992;2023-02-15T05:15:53;112171.53;;;-144.33;100.00
19843;BME280;10082;51.038;6.992;2023-02-15T05:18:21;112171.53;;;-144.33;100.00
19843;BME280;10082;51.038;6.992;2023-02-15T05:20:49;112171.53;;;-144.33;100.00
19843;BME280;10082;51.038;6.992;2023-02-15T05:23:16;112171.53;;;-144.33;100.00
19843;BME280;10082;51.038;6.992;2023-02-15T05:25:46;112171.53;;;-144.33;100.00
19843;BME280;10082;51.038;6.992;2023-02-15T05:28:33;112171.53;;;-144.33;100.00
19843;BME280;10082;51.038;6.992;2023-02-15T05:31:03;112171.53;;;-144.33;100.00
19843;BME280;10082;51.038;6.992;2023-02-15T05:33:31;112171.53;;;-144.33;100.00
19843;BME280;10082;51.038;6.992;2023-02-15T05:35:59;112171.53;;;-144.33;100.00
19843;BME280;10082;51.038;6.992;2023-02-15T05:38:27;112171.53;;;-144.33;100.00
19843;BME280;10082;51.038;6.992;2023-02-15T05:40:54;112171.53;;;-144.33;100.00
19843;BME280;10082;51.038;6.992;2023-02-15T05:43:21;112171.53;;;-144.33;100.00
19843;BME280;10082;51.038;6.992;2023-02-15T05:45:51;112171.53;;;-144.33;100.00
19843;BME280;10082;51.038;6.992;2023-02-15T05:48:20;112171.53;;;-144.33;100.00
19843;BME280;10082;51.038;6.992;2023-02-15T05:50:56;112171.53;;;-144.33;100.00
19843;BME280;10082;51.038;6.992;2023-02-15T05:53:24;112171.53;;;-144.33;100.00
19843;BME280;10082;51.038;6.992;2023-02-15T05:55:51;112171.53;;;-144.33;100.00
19843;BME280;10082;51.038;6.992;2023-02-15T05:58:18;112171.53;;;-144.33;100.00
19843;BME280;10082;51.038;6.992;2023-02-15T06:00:45;112171.53;;;-144.33;100.00
19843;BME280;10082;51.038;6.992;2023-02-15T06:03:13;112171.53;;;-144.33;100.00
19843;BME280;10082;51.038;6.992;2023-02-15T06:05:40;112171.53;;;-144.33;100.00
19843;BME280;10082;51.038;6.992;2023-02-15T06:08:07;112171.53;;;-144.33;100.00
19843;BME280;10082;51.038;6.992;2023-02-15T06:10:34;112171.53;;;-144.33;100.00
19843;BME280;10082;51.038;6.992;2023-02-15T06:13:01;112171.53;;;-144.33;100.00
19843;BME280;10082;51.038;6.992;2023-02-15T06:15:28;112171.53;;;-144.33;100.00
19843;BME280;10082;51.038;6.992;2023-02-15T06:17:55;112171.53;;;-144.33;100.00
19843;BME280;10082;51.038;6.992;2023-02-15T06:20:24;112171.53;;;-144.33;100.00
19843;BME280;10082;51.038;6.992;2023-02-15T06:22:51;112171.53;;;-144.33;100.00
19843;BME280;10082;51.038;6.992;2023-02-15T06:25:18;112171.53;;;-144.33;100.00
19843;BME280;10082;51.038;6.992;2023-02-15T06:27:45;112171.53;;;-144.33;100.00
19843;BME280;10082;51.038;6.992;2023-02-15T06:30:13;112171.53;;;-144.33;100.00
19843;BME280;10082;51.038;6.992;2023-02-15T06:32:40;112171.53;;;-144.33;100.00
19843;BME280;10082;51.038;6.992;2023-02-15T06:35:07;112171.53;;;-144.33;100.00
19843;BME280;10082;51.038;6.992;2023-02-15T06:37:38;112171.53;;;-144.33;100.00
19843;BME280;10082;51.038;6.992;2023-02-15T06:40:06;112171.53;;;-144.33;100.00
19843;BME280;10082;51.038;6.992;2023-02-15T06:42:33;112171.53;;;-144.33;100.00
19843;BME280;10082;51.038;6.992;2023-02-15T06:45:00;112171.53;;;-144.33;100.00
19843;BME280;10082;51.038;6.992;2023-02-15T06:47:27;112171.53;;;-144.33;100.00
19843;BME280;10082;51.038;6.992;2023-02-15T06:49:54;112171.53;;;-144.33;100.00
19843;BME280;10082;51.038;6.992;2023-02-15T06:52:23;112171.53;;;-144.33;100.00
19843;BME280;10082;51.038;6.992;2023-02-15T06:54:51;112171.53;;;-144.33;100.00
19843;BME280;10082;51.038;6.992;2023-02-15T06:57:18;112171.53;;;-144.33;100.00
19843;BME280;10082;51.038;6.992;2023-02-15T06:59:45;112171.53;;;-144.33;100.00
19843;BME280;10082;51.038;6.992;2023-02-15T07:02:13;112171.53;;;-144.33;100.00
19843;BME280;10082;51.038;6.992;2023-02-15T07:04:40;112171.53;;;-144.33;100.00
19843;BME280;10082;51.038;6.992;2023-02-15T07:07:08;112171.53;;;-144.33;100.00
19843;BME280;10082;51.038;6.992;2023-02-15T07:09:37;112171.53;;;-144.33;100.00
19843;BME280;10082;51.038;6.992;2023-02-15T07:12:06;112171.53;;;-144.33;100.00
19843;BME280;10082;51.038;6.992;2023-02-15T07:14:50;112171.53;;;-144.33;100.00
19843;BME280;10082;51.038;6.992;2023-02-15T07:17:17;112171.53;;;-144.33;100.00
19843;BME280;10082;51.038;6.992;2023-02-15T07:19:44;112171.53;;;-144.33;100.00
19843;BME280;10082;51.038;6.992;2023-02-15T07:22:11;112171.53;;;-144.33;100.00
19843;BME280;10082;51.038;6.992;2023-02-15T07:24:38;112171.53;;;-144.33;100.00
19843;BME280;10082;51.038;6.992;2023-02-15T07:27:07;112171.53;;;-144.33;100.00
19843;BME280;10082;51.038;6.992;2023-02-15T07:29:34;112171.53;;;-144.33;100.00
19843;BME280;10082;51.038;6.992;2023-02-15T07:32:01;112171.53;;;-144.33;100.00
19843;BME280;10082;51.038;6.992;2023-02-15T07:34:28;112171.53;;;-144.33;100.00
19843;BME280;10082;51.038;6.992;2023-02-15T07:36:55;112171.53;;;-144.33;100.00
19843;BME280;10082;51.038;6.992;2023-02-15T07:39:22;112171.53;;;-144.33;100.00
19843;BME280;10082;51.038;6.992;2023-02-15T07:41:49;112171.53;;;-144.33;100.00
19843;BME280;10082;51.038;6.992;2023-02-15T07:44:18;112171.53;;;-144.33;100.00
19843;BME280;10082;51.038;6.992;2023-02-15T07:46:45;112171.53;;;-144.33;100.00
19843;BME280;10082;51.038;6.992;2023-02-15T07:49:13;112171.53;;;-144.33;100.00
19843;BME280;10082;51.038;6.992;2023-02-15T07:51:40;112171.53;;;-144.33;100.00
19843;BME280;10082;51.038;6.992;2023-02-15T07:54:07;112171.53;;;-144.33;100.00
19843;BME280;10082;51.038;6.992;2023-02-15T07:56:34;112171.53;;;-144.33;100.00
19843;BME280;10082;51.038;6.992;2023-02-15T07:59:01;112171.53;;;-144.33;100.00
19843;BME280;10082;51.038;6.992;2023-02-15T08:01:34;112171.53;;;-144.33;100.00
19843;BME280;10082;51.038;6.992;2023-02-15T08:04:02;112171.53;;;-144.33;100.00
19843;BME280;10082;51.038;6.992;2023-02-15T08:06:30;112171.53;;;-144.33;100.00
19843;BME280;10082;51.038;6.992;2023-02-15T08:08:58;112171.53;;;-144.33;100.00
19843;BME280;10082;51.038;6.992;2023-02-15T08:11:27;112171.53;;;-144.33;100.00
19843;BME280;10082;51.038;6.992;2023-02-15T08:14:04;112171.53;;;-144.33;100.00
19843;BME280;10082;51.038;6.992;2023-02-15T08:16:35;112171.53;;;-144.33;100.00
19843;BME280;10082;51.038;6.992;2023-02-15T08:19:04;112171.53;;;-144.33;100.00
19843;BME280;10082;51.038;6.992;2023-02-15T08:21:35;112171.53;;;-144.33;100.00
19843;BME280;10082;51.038;6.992;2023-02-15T08:24:03;112171.53;;;-144.33;100.00
19843;BME280;10082;51.038;6.992;2023-02-15T08:26:30;112171.53;;;-144.33;100.00
19843;BME280;10082;51.038;6.992;2023-02-15T08:28:59;112171.53;;;-144.33;100.00
19843;BME280;10082;51.038;6.992;2023-02-15T08:31:26;112171.53;;;-144.33;100.00
19843;BME280;10082;51.038;6.992;2023-02-15T08:33:56;112171.53;;;-144.33;100.00
19843;BME280;10082;51.038;6.992;2023-02-15T08:36:25;112171.53;;;-144.33;100.00
19843;BME280;10082;51.038;6.992;2023-02-15T08:38:52;112171.53;;;-144.33;100.00
19843;BME280;10082;51.038;6.992;2023-02-15T08:41:22;112171.53;;;-144.33;100.00
19843;BME280;10082;51.038;6.992;2023-02-15T08:43:50;112171.53;;;-144.33;100.00
19843;BME280;10082;51.038;6.992;2023-02-15T08:46:19;112171.53;;;-144.33;100.00
19843;BME280;10082;51.038;6.992;2023-02-15T08:48:47;112171.53;;;-144.33;100.00
19843;BME280;10082;51.038;6.992;2023-02-15T08:51:17;112171.53;;;-144.33;100.00
19843;BME280;10082;51.038;6.992;2023-02-15T08:53:46;112171.53;;;-144.33;100.00
19843;BME280;10082;51.038;6.992;2023-02-15T08:56:15;112171.53;;;-144.33;100.00
19843;BME280;10082;51.038;6.992;2023-02-15T08:58:43;112171.53;;;-144.33;100.00
19843;BME280;10082;51.038;6.992;2023-02-15T09:01:10;112171.53;;;-144.33;100.00
19843;BME280;10082;51.038;6.992;2023-02-15T09:03:38;112171.53;;;-144.33;100.00
19843;BME280;10082;51.038;6.992;2023-02-15T09:06:05;112171.53;;;-144.33;100.00
19843;BME280;10082;51.038;6.992;2023-02-15T09:08:34;112171.53;;;-144.33;100.00
19843;BME280;10082;51.038;6.992;2023-02-15T09:11:05;112171.53;;;-144.33;100.00
19843;BME280;10082;51.038;6.992;2023-02-15T09:13:32;112171.53;;;-144.33;100.00
19843;BME280;10082;51.038;6.992;2023-02-15T09:16:04;112171.53;;;-144.33;100.00
19843;BME280;10082;51.038;6.992;2023-02-15T09:18:33;112171.53;;;-144.33;100.00
19843;BME280;10082;51.038;6.992;2023-02-15T09:21:10;112171.53;;;-144.33;100.00
19843;BME280;10082;51.038;6.992;2023-02-15T09:23:41;112171.53;;;-144.33;100.00
19843;BME280;10082;51.038;6.992;2023-02-15T09:26:10;112171.53;;;-144.33;100.00
19843;BME280;10082;51.038;6.992;2023-02-15T09:28:38;112171.53;;;-144.33;100.00
19843;BME280;10082;51.038;6.992;2023-02-15T09:31:10;112171.53;;;-144.33;100.00
19843;BME280;10082;51.038;6.992;2023-02-15T09:33:38;112171.53;;;-144.33;98.52
19843;BME280;10082;51.038;6.992;2023-02-15T09:36:14;112171.53;;;-144.33;96.13
19843;BME280;10082;51.038;6.992;2023-02-15T09:38:42;112171.53;;;-144.33;93.69
19843;BME280;10082;51.038;6.992;2023-02-15T09:41:21;112171.53;;;-144.33;93.87
19843;BME280;10082;51.038;6.992;2023-02-15T09:43:59;112171.53;;;-144.33;93.12
19843;BME280;10082;51.038;6.992;2023-02-15T09:46:40;112171.53;;;-144.33;92.54
19843;BME280;10082;51.038;6.992;2023-02-15T09:49:14;112171.53;;;-144.33;93.85
19843;BME280;10082;51.038;6.992;2023-02-15T09:52:06;112171.53;;;-144.33;96.85
19843;BME280;10082;51.038;6.992;2023-02-15T09:54:52;112171.53;;;-144.33;95.76
19843;BME280;10082;51.038;6.992;2023-02-15T09:57:26;112171.53;;;-144.33;92.72
19843;BME280;10082;51.038;6.992;2023-02-15T10:00:02;112171.53;;;-144.33;92.76
19843;BME280;10082;51.038;6.992;2023-02-15T10:02:50;112171.53;;;-144.33;95.61
19843;BME280;10082;51.038;6.992;2023-02-15T10:05:31;112171.53;;;-144.33;96.17
19843;BME280;10082;51.038;6.992;2023-02-15T10:08:21;112171.53;;;-144.33;93.70
19843;BME280;10082;51.038;6.992;2023-02-15T10:11:03;112171.53;;;-144.33;91.75
19843;BME280;10082;51.038;6.992;2023-02-15T10:13:56;112171.53;;;-144.33;90.10
19843;BME280;10082;51.038;6.992;2023-02-15T10:16:32;112171.53;;;-144.33;89.20
19843;BME280;10082;51.038;6.992;2023-02-15T10:19:08;112171.53;;;-144.33;90.38
19843;BME280;10082;51.038;6.992;2023-02-15T10:21:49;112171.53;;;-144.33;91.18
19843;BME280;10082;51.038;6.992;2023-02-15T10:24:34;112171.53;;;-144.33;89.59
19843;BME280;10082;51.038;6.992;2023-02-15T10:27:11;112171.53;;;-144.33;90.39
19843;BME280;10082;51.038;6.992;2023-02-15T10:29:43;112171.53;;;-144.33;86.42
19843;BME280;10082;51.038;6.992;2023-02-15T10:32:21;112171.53;;;-144.33;82.84
19843;BME280;10082;51.038;6.992;2023-02-15T10:34:51;112171.53;;;-144.33;83.01
19843;BME280;10082;51.038;6.992;2023-02-15T10:37:40;112171.53;;;-144.33;82.43
19843;BME280;10082;51.038;6.992;2023-02-15T10:40:16;112171.53;;;-144.33;81.18
19843;BME280;10082;51.038;6.992;2023-02-15T10:43:00;112171.53;;;-144.33;82.85
19843;BME280;10082;51.038;6.992;2023-02-15T10:45:40;112171.53;;;-144.33;80.57
19843;BME280;10082;51.038;6.992;2023-02-15T10:48:43;112171.53;;;-144.33;81.87
19843;BME280;10082;51.038;6.992;2023-02-15T10:51:21;112171.53;;;-144.33;79.07
19843;BME280;10082;51.038;6.992;2023-02-15T10:54:01;112171.53;;;-144.33;79.52
19843;BME280;10082;51.038;6.992;2023-02-15T10:56:35;112171.53;;;-144.33;79.92
19843;BME280;10082;51.038;6.992;2023-02-15T10:59:21;112171.53;;;-144.33;81.62
19843;BME280;10082;51.038;6.992;2023-02-15T11:01:56;112171.53;;;-144.33;81.08
19843;BME280;10082;51.038;6.992;2023-02-15T11:04:44;112171.53;;;-144.33;83.06
19843;BME280;10082;51.038;6.992;2023-02-15T11:07:17;112171.53;;;-144.33;82.88
19843;BME280;10082;51.038;6.992;2023-02-15T11:09:49;112171.53;;;-144.33;84.21
19843;BME280;10082;51.038;6.992;2023-02-15T11:12:23;112171.53;;;-144.33;86.12
19843;BME280;10082;51.038;6.992;2023-02-15T11:14:56;112171.53;;;-144.33;87.35
19843;BME280;10082;51.038;6.992;2023-02-15T11:17:30;112171.53;;;-144.33;86.27
19843;BME280;10082;51.038;6.992;2023-02-15T11:20:07;112171.53;;;-144.33;87.97
19843;BME280;10082;51.038;6.992;2023-02-15T11:22:41;112171.53;;;-144.33;87.00
19843;BME280;10082;51.038;6.992;2023-02-15T11:25:16;112171.53;;;-144.33;85.73
19843;BME280;10082;51.038;6.992;2023-02-15T11:27:46;112171.53;;;-144.33;87.32
19843;BME280;10082;51.038;6.992;2023-02-15T11:30:19;112171.53;;;-144.33;88.47
19843;BME280;10082;51.038;6.992;2023-02-15T11:32:47;112171.53;;;-144.33;89.21
19843;BME280;10082;51.038;6.992;2023-02-15T11:35:21;112171.53;;;-144.33;89.31
19843;BME280;10082;51.038;6.992;2023-02-15T11:37:53;112171.53;;;-144.33;89.87
19843;BME280;10082;51.038;6.992;2023-02-15T11:40:24;112171.53;;;-144.33;89.83
19843;BME280;10082;51.038;6.992;2023-02-15T11:42:55;112171.53;;;-144.33;89.74
19843;BME280;10082;51.038;6.992;2023-02-15T11:45:27;112171.53;;;-144.33;89.02
19843;BME280;10082;51.038;6.992;2023-02-15T11:47:55;112171.53;;;-144.33;87.13
19843;BME280;10082;51.038;6.992;2023-02-15T11:50:23;112171.53;;;-144.33;86.79
19843;BME280;10082;51.038;6.992;2023-02-15T11:52:54;112171.53;;;-144.33;86.55
19843;BME280;10082;51.038;6.992;2023-02-15T11:55:29;112171.53;;;-144.33;86.79
19843;BME280;10082;51.038;6.992;2023-02-15T11:58:00;112171.53;;;-144.33;85.70
19843;BME280;10082;51.038;6.992;2023-02-15T12:00:36;112171.53;;;-144.33;86.13
19843;BME280;10082;51.038;6.992;2023-02-15T12:03:12;112171.53;;;-144.33;84.78
19843;BME280;10082;51.038;6.992;2023-02-15T12:05:45;112171.53;;;-144.33;84.28
19843;BME280;10082;51.038;6.992;2023-02-15T12:08:16;112171.53;;;-144.33;83.39
19843;BME280;10082;51.038;6.992;2023-02-15T12:10:57;112171.53;;;-144.33;83.45
19843;BME280;10082;51.038;6.992;2023-02-15T12:13:24;112171.53;;;-144.33;83.00
19843;BME280;10082;51.038;6.992;2023-02-15T12:15:55;112171.53;;;-144.33;83.03
19843;BME280;10082;51.038;6.992;2023-02-15T12:18:35;112171.53;;;-144.33;82.82
19843;BME280;10082;51.038;6.992;2023-02-15T12:21:06;112171.53;;;-144.33;82.38
19843;BME280;10082;51.038;6.992;2023-02-15T12:23:34;112171.53;;;-144.33;80.04
19843;BME280;10082;51.038;6.992;2023-02-15T12:26:06;112171.53;;;-144.33;78.58
19843;BME280;10082;51.038;6.992;2023-02-15T12:28:35;112171.53;;;-144.33;79.37
19843;BME280;10082;51.038;6.992;2023-02-15T12:31:09;112171.53;;;-144.33;79.56
19843;BME280;10082;51.038;6.992;2023-02-15T12:33:45;112171.53;;;-144.33;79.64
19843;BME280;10082;51.038;6.992;2023-02-15T12:36:17;112171.53;;;-144.33;80.51
19843;BME280;10082;51.038;6.992;2023-02-15T12:39:02;112171.53;;;-144.33;78.91
19843;BME280;10082;51.038;6.992;2023-02-15T12:41:30;112171.53;;;-144.33;77.36
19843;BME280;10082;51.038;6.992;2023-02-15T12:44:06;112171.53;;;-144.33;77.03
19843;BME280;10082;51.038;6.992;2023-02-15T12:46:35;112171.53;;;-144.33;78.17
19843;BME280;10082;51.038;6.992;2023-02-15T12:49:06;112171.53;;;-144.33;76.51